createdAt,value
2023-05-06T00:00:13.034Z,76.48
2023-05-06T00:02:39.557Z,77.63
2023-05-06T00:05:06.660Z,77.65
2023-05-06T00:07:33.094Z,76.58
2023-05-06T00:09:59.524Z,75.17
2023-05-06T00:12:25.922Z,76.46
2023-05-06T00:14:52.343Z,78.20
2023-05-06T00:17:18.787Z,77.80
2023-05-06T00:19:45.191Z,77.28
2023-05-06T00:22:11.649Z,76.91
2023-05-06T00:24:38.085Z,75.95
2023-05-06T00:27:05.659Z,75.67
2023-05-06T00:29:31.991Z,76.32
2023-05-06T00:31:58.434Z,77.79
2023-05-06T00:34:24.900Z,77.73
2023-05-06T00:36:51.265Z,77.92
2023-05-06T00:39:17.674Z,78.31
2023-05-06T00:41:44.040Z,79.12
2023-05-06T00:44:10.475Z,77.64
2023-05-06T00:46:37.310Z,78.60
2023-05-06T00:49:03.738Z,78.12
2023-05-06T00:51:30.830Z,78.14
2023-05-06T00:53:57.325Z,78.23
2023-05-06T00:56:23.803Z,78.92
2023-05-06T00:58:50.518Z,79.19
2023-05-06T01:01:17.392Z,78.61
2023-05-06T01:03:44.354Z,78.70
2023-05-06T01:06:30.044Z,79.28
2023-05-06T01:09:19.776Z,79.22
2023-05-06T01:12:12.191Z,79.24
2023-05-06T01:15:06.479Z,79.21
2023-05-06T01:17:35.545Z,80.19
2023-05-06T01:20:04.459Z,80.03
2023-05-06T01:22:31.679Z,79.18
2023-05-06T01:24:58.057Z,78.58
2023-05-06T01:27:24.988Z,78.88
2023-05-06T01:29:51.473Z,80.25
2023-05-06T01:32:26.764Z,80.52
2023-05-06T01:34:56.835Z,80.39
2023-05-06T01:37:32.241Z,78.12
2023-05-06T01:40:00.707Z,76.45
2023-05-06T01:42:29.214Z,76.17
2023-05-06T01:44:57.296Z,79.38
2023-05-06T01:47:24.361Z,80.31
2023-05-06T01:49:51.229Z,79.98
2023-05-06T01:52:17.620Z,79.88
2023-05-06T01:54:43.996Z,79.15
2023-05-06T01:57:10.822Z,79.86
2023-05-06T01:59:37.195Z,79.26
2023-05-06T02:02:03.656Z,79.63
2023-05-06T02:04:30.512Z,81.35
2023-05-06T02:06:57.045Z,81.19
2023-05-06T02:09:23.465Z,78.67
2023-05-06T02:11:49.838Z,79.42
2023-05-06T02:14:16.176Z,80.55
2023-05-06T02:16:42.610Z,80.40
2023-05-06T02:19:08.962Z,80.55
2023-05-06T02:21:35.852Z,80.00
2023-05-06T02:24:02.203Z,80.93
2023-05-06T02:26:28.638Z,82.07
2023-05-06T02:28:55.015Z,82.40
2023-05-06T02:31:21.438Z,81.77
2023-05-06T02:33:47.885Z,81.70
2023-05-06T02:36:14.235Z,81.38
2023-05-06T02:38:40.749Z,82.80
2023-05-06T02:41:07.106Z,82.86
2023-05-06T02:43:33.503Z,82.44
2023-05-06T02:45:59.935Z,83.22
2023-05-06T02:48:26.306Z,82.77
2023-05-06T02:50:52.679Z,82.66
2023-05-06T02:53:19.074Z,82.82
2023-05-06T02:55:45.617Z,83.08
2023-05-06T02:58:12.034Z,82.26
2023-05-06T03:00:38.388Z,81.56
2023-05-06T03:03:04.954Z,81.98
2023-05-06T03:05:31.416Z,83.10
2023-05-06T03:07:57.883Z,83.46
2023-05-06T03:10:24.519Z,83.58
2023-05-06T03:12:51.105Z,83.41
2023-05-06T03:15:17.628Z,83.81
2023-05-06T03:17:44.029Z,84.88
2023-05-06T03:20:10.558Z,83.11
2023-05-06T03:22:36.940Z,83.78
2023-05-06T03:25:03.572Z,84.21
2023-05-06T03:27:29.927Z,83.59
2023-05-06T03:29:56.256Z,82.77
2023-05-06T03:32:22.737Z,82.16
2023-05-06T03:34:49.101Z,84.00
2023-05-06T03:37:15.420Z,83.93
2023-05-06T03:39:41.752Z,83.98
2023-05-06T03:42:09.719Z,83.07
2023-05-06T03:44:36.357Z,82.21
2023-05-06T03:47:02.791Z,82.34
2023-05-06T03:49:29.128Z,82.86
2023-05-06T03:51:56.075Z,84.20
2023-05-06T03:54:22.673Z,83.89
2023-05-06T03:56:49.024Z,83.81
2023-05-06T03:59:15.540Z,82.95
2023-05-06T04:01:41.927Z,82.99
2023-05-06T04:04:08.416Z,83.33
2023-05-06T04:06:34.878Z,83.63
2023-05-06T04:09:01.210Z,83.17
2023-05-06T04:11:29.692Z,83.36
2023-05-06T04:13:56.296Z,83.42
2023-05-06T04:16:23.042Z,83.66
2023-05-06T04:18:51.450Z,83.83
2023-05-06T04:21:18.441Z,83.78
2023-05-06T04:23:44.830Z,83.72
2023-05-06T04:26:11.283Z,83.92
2023-05-06T04:28:37.780Z,82.74
2023-05-06T04:31:04.889Z,83.00
2023-05-06T04:33:31.376Z,82.81
2023-05-06T04:35:57.960Z,84.13
2023-05-06T04:38:27.059Z,84.62
2023-05-06T04:40:53.544Z,84.56
2023-05-06T04:43:20.010Z,84.17
2023-05-06T04:45:49.427Z,84.99
2023-05-06T04:48:20.074Z,84.41
2023-05-06T04:50:46.823Z,84.00
2023-05-06T04:53:13.382Z,84.38
2023-05-06T04:55:39.730Z,84.33
2023-05-06T04:58:06.384Z,83.86
2023-05-06T05:00:33.295Z,84.82
2023-05-06T05:02:59.857Z,85.49
2023-05-06T05:05:27.706Z,85.78
2023-05-06T05:07:54.700Z,85.64
2023-05-06T05:10:21.170Z,85.54
2023-05-06T05:12:47.688Z,85.99
2023-05-06T05:15:14.444Z,86.02
2023-05-06T05:17:40.844Z,86.81
2023-05-06T05:20:07.798Z,85.57
2023-05-06T05:22:34.168Z,85.03
2023-05-06T05:25:00.626Z,84.91
2023-05-06T05:27:27.162Z,84.86
2023-05-06T05:29:54.046Z,85.51
2023-05-06T05:32:21.715Z,87.07
2023-05-06T05:34:48.094Z,87.06
2023-05-06T05:37:14.535Z,86.98
2023-05-06T05:39:40.903Z,84.96
2023-05-06T05:42:07.333Z,84.38
2023-05-06T05:44:33.715Z,84.83
2023-05-06T05:47:00.041Z,85.02
2023-05-06T05:49:26.395Z,83.71
2023-05-06T05:51:52.770Z,85.41
2023-05-06T05:54:19.113Z,85.13
2023-05-06T05:56:45.600Z,85.23
2023-05-06T05:59:11.970Z,81.50
2023-05-06T06:01:38.318Z,78.41
2023-05-06T06:04:05.126Z,75.51
2023-05-06T06:06:31.843Z,72.61
2023-05-06T06:08:58.871Z,70.88
2023-05-06T06:11:26.837Z,67.74
2023-05-06T06:13:53.353Z,65.95
2023-05-06T06:16:19.787Z,65.34
2023-05-06T06:18:46.163Z,65.76
2023-05-06T06:21:12.606Z,67.12
2023-05-06T06:23:38.953Z,65.48
2023-05-06T06:26:05.454Z,66.64
2023-05-06T06:28:31.904Z,65.86
2023-05-06T06:30:58.246Z,65.24
2023-05-06T06:33:24.727Z,65.01
2023-05-06T06:35:51.186Z,62.80
2023-05-06T06:38:17.634Z,63.19
2023-05-06T06:40:44.075Z,63.91
2023-05-06T06:43:10.560Z,64.90
2023-05-06T06:45:36.954Z,64.92
2023-05-06T06:48:03.541Z,65.74
2023-05-06T06:50:30.023Z,65.72
2023-05-06T06:52:56.423Z,67.20
2023-05-06T06:55:22.910Z,67.79
2023-05-06T06:57:49.423Z,68.12
2023-05-06T07:00:16.211Z,67.58
2023-05-06T07:02:42.631Z,68.63
2023-05-06T07:05:09.456Z,67.77
2023-05-06T07:07:36.336Z,67.69
2023-05-06T07:10:02.862Z,66.54
2023-05-06T07:12:29.200Z,66.52
2023-05-06T07:14:55.608Z,67.09
2023-05-06T07:17:22.089Z,67.13
2023-05-06T07:19:48.521Z,67.13
2023-05-06T07:22:14.926Z,66.44
2023-05-06T07:24:41.427Z,66.77
2023-05-06T07:27:08.097Z,67.28
2023-05-06T07:29:36.541Z,66.77
2023-05-06T07:32:03.496Z,66.42
2023-05-06T07:34:30.233Z,66.43
2023-05-06T07:36:57.206Z,67.75
2023-05-06T07:39:23.587Z,69.38
2023-05-06T07:41:50.120Z,68.53
2023-05-06T07:44:16.743Z,66.95
2023-05-06T07:46:43.251Z,67.41
2023-05-06T07:49:09.801Z,67.40
2023-05-06T07:51:36.223Z,66.16
2023-05-06T07:54:02.575Z,64.90
2023-05-06T07:56:29.082Z,65.71
2023-05-06T07:58:55.441Z,66.59
2023-05-06T08:01:21.919Z,65.87
2023-05-06T08:03:48.358Z,65.83
2023-05-06T08:06:14.739Z,66.37
2023-05-06T08:08:41.105Z,66.01
2023-05-06T08:11:07.456Z,65.87
2023-05-06T08:13:33.929Z,66.03
2023-05-06T08:16:02.227Z,66.10
2023-05-06T08:18:28.884Z,65.71
2023-05-06T08:20:55.601Z,67.32
2023-05-06T08:23:22.100Z,66.91
2023-05-06T08:25:48.520Z,67.94
2023-05-06T08:28:14.916Z,68.22
2023-05-06T08:30:41.298Z,68.21
2023-05-06T08:33:07.684Z,66.78
2023-05-06T08:35:34.097Z,65.91
2023-05-06T08:38:00.430Z,66.14
2023-05-06T08:40:27.974Z,68.49
2023-05-06T08:42:56.025Z,65.67
2023-05-06T08:45:23.499Z,63.50
2023-05-06T08:47:50.075Z,66.25
2023-05-06T08:50:16.677Z,66.46
2023-05-06T08:52:43.591Z,66.39
2023-05-06T08:55:10.470Z,63.85
2023-05-06T08:57:37.292Z,66.13
2023-05-06T09:00:04.862Z,65.69
2023-05-06T09:02:31.388Z,65.54
2023-05-06T09:04:57.761Z,68.23
2023-05-06T09:07:24.291Z,65.85
2023-05-06T09:09:51.611Z,65.05
2023-05-06T09:12:18.417Z,63.64
2023-05-06T09:14:45.661Z,62.99
2023-05-06T09:17:24.423Z,63.30
2023-05-06T09:19:52.434Z,59.67
2023-05-06T09:22:21.504Z,59.84
2023-05-06T09:24:56.362Z,58.59
2023-05-06T09:27:27.951Z,60.85
2023-05-06T09:30:03.913Z,61.26
2023-05-06T09:32:30.469Z,56.97
2023-05-06T09:34:57.507Z,58.70
2023-05-06T09:37:26.257Z,59.37
2023-05-06T09:39:58.037Z,61.03
2023-05-06T09:42:29.633Z,60.09
2023-05-06T09:45:00.634Z,58.57
2023-05-06T09:47:34.929Z,58.31
2023-05-06T09:50:02.714Z,58.84
2023-05-06T09:52:30.208Z,57.84
2023-05-06T09:54:57.360Z,57.57
2023-05-06T09:57:24.044Z,61.16
2023-05-06T09:59:52.281Z,60.21
2023-05-06T10:02:19.668Z,59.44
2023-05-06T10:04:48.805Z,58.47
2023-05-06T10:07:19.609Z,59.85
2023-05-06T10:09:46.848Z,57.30
2023-05-06T10:12:13.764Z,56.29
2023-05-06T10:14:40.354Z,58.94
2023-05-06T10:17:09.368Z,59.03
2023-05-06T10:19:39.317Z,60.69
2023-05-06T10:22:39.905Z,56.27
2023-05-06T10:25:19.099Z,56.57
2023-05-06T10:27:46.693Z,57.53
2023-05-06T10:30:16.110Z,55.30
2023-05-06T10:32:43.767Z,55.82
2023-05-06T10:35:26.626Z,56.81
2023-05-06T10:37:54.603Z,55.42
2023-05-06T10:40:23.109Z,56.49
2023-05-06T10:42:49.597Z,55.68
2023-05-06T10:45:16.523Z,57.29
2023-05-06T10:47:58.027Z,54.43
2023-05-06T10:50:26.183Z,56.68
2023-05-06T10:52:58.918Z,56.00
2023-05-06T10:55:30.771Z,55.78
2023-05-06T10:58:01.826Z,57.53
2023-05-06T11:00:34.922Z,57.14
2023-05-06T11:03:10.239Z,56.19
2023-05-06T11:05:51.777Z,60.36
2023-05-06T11:08:27.487Z,59.25
2023-05-06T11:10:54.330Z,60.49
2023-05-06T11:13:28.966Z,60.50
2023-05-06T11:15:57.069Z,59.13
2023-05-06T11:18:30.891Z,61.21
2023-05-06T11:21:00.496Z,54.88
2023-05-06T11:23:42.056Z,57.26
2023-05-06T11:26:09.430Z,57.84
2023-05-06T11:28:36.199Z,56.32
2023-05-06T11:31:02.921Z,54.58
2023-05-06T11:33:33.330Z,53.74
2023-05-06T11:36:00.964Z,52.19
2023-05-06T11:38:42.333Z,53.97
2023-05-06T11:41:08.729Z,53.39
2023-05-06T11:43:35.078Z,54.06
2023-05-06T11:46:01.579Z,54.54
2023-05-06T11:48:27.966Z,56.45
2023-05-06T11:50:55.123Z,58.05
2023-05-06T11:53:23.241Z,55.21
2023-05-06T11:55:52.342Z,53.70
2023-05-06T11:58:29.256Z,52.34
2023-05-06T12:01:02.980Z,54.87
2023-05-06T12:03:32.200Z,52.47
2023-05-06T12:05:59.403Z,52.24
2023-05-06T12:08:34.476Z,57.03
2023-05-06T12:11:02.785Z,54.00
2023-05-06T12:13:29.918Z,53.58
2023-05-06T12:15:59.361Z,53.08
2023-05-06T12:18:26.818Z,54.03
2023-05-06T12:20:54.635Z,55.23
2023-05-06T12:23:21.976Z,53.77
2023-05-06T12:26:01.274Z,50.41
2023-05-06T12:28:27.621Z,51.46
2023-05-06T12:30:54.032Z,51.24
2023-05-06T12:33:20.771Z,54.07
2023-05-06T12:35:47.199Z,54.55
2023-05-06T12:38:18.136Z,54.04
2023-05-06T12:40:51.933Z,54.50
2023-05-06T12:43:18.420Z,53.54
2023-05-06T12:46:03.416Z,54.29
2023-05-06T12:48:30.149Z,54.33
2023-05-06T12:50:56.512Z,54.33
2023-05-06T12:53:34.112Z,53.38
2023-05-06T12:56:00.711Z,52.13
2023-05-06T12:58:27.056Z,53.20
2023-05-06T13:00:53.395Z,50.97
2023-05-06T13:03:19.965Z,48.76
2023-05-06T13:05:48.166Z,47.20
2023-05-06T13:08:14.492Z,47.92
2023-05-06T13:10:40.890Z,47.99
2023-05-06T13:13:07.802Z,47.01
2023-05-06T13:15:34.987Z,47.71
2023-05-06T13:18:01.476Z,49.48
2023-05-06T13:20:27.932Z,49.92
2023-05-06T13:22:55.286Z,47.05
2023-05-06T13:25:22.261Z,46.94
2023-05-06T13:27:48.915Z,49.01
2023-05-06T13:30:15.397Z,49.05
2023-05-06T13:32:41.869Z,47.93
2023-05-06T13:35:08.907Z,52.11
2023-05-06T13:37:35.580Z,50.59
2023-05-06T13:40:02.035Z,49.67
2023-05-06T13:42:28.427Z,48.24
2023-05-06T13:44:54.794Z,46.43
2023-05-06T13:47:21.223Z,49.46
2023-05-06T13:49:47.553Z,49.58
2023-05-06T13:52:13.956Z,51.04
2023-05-06T13:54:40.403Z,49.32
2023-05-06T13:57:06.822Z,49.72
2023-05-06T13:59:33.132Z,48.78
2023-05-06T14:02:00.017Z,51.07
2023-05-06T14:04:26.500Z,50.35
2023-05-06T14:06:53.214Z,49.91
2023-05-06T14:09:19.588Z,51.00
2023-05-06T14:11:45.917Z,50.25
2023-05-06T14:14:12.275Z,50.80
2023-05-06T14:16:38.730Z,50.57
2023-05-06T14:19:05.696Z,51.07
2023-05-06T14:21:32.241Z,50.13
2023-05-06T14:23:58.718Z,48.08
2023-05-06T14:26:25.475Z,46.89
2023-05-06T14:28:51.809Z,48.10
2023-05-06T14:31:18.307Z,50.98
2023-05-06T14:33:44.668Z,52.10
2023-05-06T14:36:11.009Z,52.52
2023-05-06T14:38:37.376Z,50.31
2023-05-06T14:41:03.908Z,49.21
2023-05-06T14:43:30.275Z,49.52
2023-05-06T14:45:56.834Z,50.21
2023-05-06T14:48:25.267Z,50.42
2023-05-06T14:50:51.637Z,52.09
2023-05-06T14:53:17.991Z,50.65
2023-05-06T14:55:45.417Z,51.15
2023-05-06T14:58:11.842Z,50.31
2023-05-06T15:00:38.194Z,51.94
2023-05-06T15:03:04.715Z,50.35
2023-05-06T15:05:31.348Z,49.39
2023-05-06T15:07:57.711Z,49.56
2023-05-06T15:10:24.178Z,50.65
2023-05-06T15:12:50.674Z,48.63
2023-05-06T15:15:17.101Z,50.88
2023-05-06T15:17:43.587Z,50.29
2023-05-06T15:20:10.513Z,51.44
2023-05-06T15:22:39.276Z,49.79
2023-05-06T15:25:06.974Z,51.61
2023-05-06T15:27:33.703Z,49.80
2023-05-06T15:30:04.151Z,48.80
2023-05-06T15:32:31.410Z,49.50
2023-05-06T15:34:57.956Z,49.77
2023-05-06T15:37:24.431Z,47.94
2023-05-06T15:39:50.936Z,49.68
2023-05-06T15:42:17.320Z,48.73
2023-05-06T15:44:43.784Z,47.86
2023-05-06T15:47:10.223Z,47.71
2023-05-06T15:49:52.114Z,48.92
2023-05-06T15:52:21.132Z,49.24
2023-05-06T15:54:49.933Z,48.74
2023-05-06T15:57:16.930Z,49.74
2023-05-06T15:59:43.307Z,50.01
2023-05-06T16:04:39.211Z,49.60
2023-05-06T16:07:05.817Z,49.38
2023-05-06T16:09:32.253Z,48.85
2023-05-06T16:11:58.746Z,48.70
2023-05-06T16:14:25.163Z,48.17
2023-05-06T16:16:51.533Z,47.31
2023-05-06T16:19:18.604Z,47.33
2023-05-06T16:21:44.939Z,45.90
2023-05-06T16:24:11.342Z,47.09
2023-05-06T16:26:37.710Z,47.39
2023-05-06T16:29:04.070Z,50.26
2023-05-06T16:31:30.662Z,49.75
2023-05-06T16:33:57.067Z,48.51
2023-05-06T16:36:23.521Z,49.10
2023-05-06T16:38:49.861Z,49.83
2023-05-06T16:41:16.492Z,50.73
2023-05-06T16:43:42.828Z,49.93
2023-05-06T16:46:09.187Z,49.52
2023-05-06T16:48:35.692Z,50.86
2023-05-06T16:51:02.345Z,50.32
2023-05-06T16:53:29.380Z,50.39
2023-05-06T16:55:56.151Z,51.51
2023-05-06T16:58:22.524Z,52.15
2023-05-06T17:00:48.959Z,52.70
2023-05-06T17:03:15.983Z,51.85
2023-05-06T17:05:42.455Z,51.53
2023-05-06T17:08:10.436Z,52.47
2023-05-06T17:10:37.201Z,53.91
2023-05-06T17:13:05.072Z,53.52
2023-05-06T17:15:31.681Z,53.64
2023-05-06T17:17:58.091Z,54.58
2023-05-06T17:20:25.173Z,54.08
2023-05-06T17:22:51.687Z,54.55
2023-05-06T17:25:18.255Z,54.22
2023-05-06T17:27:44.637Z,55.12
2023-05-06T17:30:11.776Z,55.17
2023-05-06T17:32:38.688Z,55.31
2023-05-06T17:35:07.343Z,54.19
2023-05-06T17:37:34.334Z,55.04
2023-05-06T17:40:00.963Z,56.69
2023-05-06T17:42:27.478Z,56.03
2023-05-06T17:44:54.538Z,55.33
2023-05-06T17:47:22.716Z,58.03
2023-05-06T17:49:53.169Z,58.43
2023-05-06T17:52:20.154Z,57.23
2023-05-06T17:54:57.002Z,59.38
2023-05-06T17:57:33.961Z,57.89
2023-05-06T18:00:00.468Z,57.36
2023-05-06T18:02:26.903Z,57.90
2023-05-06T18:04:53.319Z,59.29
2023-05-06T18:07:19.719Z,59.17
2023-05-06T18:09:51.737Z,59.99
2023-05-06T18:12:19.288Z,58.10
2023-05-06T18:14:45.657Z,58.19
2023-05-06T18:17:12.056Z,59.31
2023-05-06T18:19:38.521Z,59.93
2023-05-06T18:22:04.936Z,61.11
2023-05-06T18:24:31.273Z,61.75
2023-05-06T18:26:58.560Z,62.09
2023-05-06T18:29:25.015Z,62.72
2023-05-06T18:31:51.454Z,62.99
2023-05-06T18:34:17.949Z,62.57
2023-05-06T18:36:44.398Z,62.67
2023-05-06T18:39:10.747Z,63.13
2023-05-06T18:41:37.162Z,63.11
2023-05-06T18:44:04.435Z,64.06
2023-05-06T18:46:30.999Z,64.43
2023-05-06T18:48:57.894Z,64.43
2023-05-06T18:51:24.263Z,65.53
2023-05-06T18:53:50.597Z,64.97
2023-05-06T18:56:17.047Z,63.87
2023-05-06T18:58:43.452Z,62.41
2023-05-06T19:01:10.763Z,61.27
2023-05-06T19:03:38.367Z,61.40
2023-05-06T19:06:09.026Z,60.35
2023-05-06T19:08:35.894Z,60.34
2023-05-06T19:11:02.677Z,59.89
2023-05-06T19:13:29.270Z,60.04
2023-05-06T19:15:56.984Z,59.82
2023-05-06T19:18:23.489Z,59.98
2023-05-06T19:20:49.863Z,60.19
2023-05-06T19:23:16.217Z,60.35
2023-05-06T19:25:42.600Z,59.94
2023-05-06T19:28:09.507Z,59.46
2023-05-06T19:30:36.223Z,59.63
2023-05-06T19:33:02.733Z,59.27
2023-05-06T19:35:29.314Z,59.90
2023-05-06T19:37:56.159Z,59.08
2023-05-06T19:40:22.721Z,59.29
2023-05-06T19:42:49.178Z,59.49
2023-05-06T19:45:17.482Z,59.35
2023-05-06T19:47:44.647Z,60.30
2023-05-06T19:50:11.909Z,60.08
2023-05-06T19:52:38.679Z,60.31
2023-05-06T19:55:05.667Z,60.35
2023-05-06T19:57:33.500Z,60.22
2023-05-06T19:59:59.904Z,61.07
2023-05-06T20:02:26.357Z,60.73
2023-05-06T20:04:52.851Z,62.22
2023-05-06T20:07:20.998Z,63.45
2023-05-06T20:09:47.541Z,63.43
2023-05-06T20:12:13.949Z,64.32
2023-05-06T20:14:40.320Z,63.79
2023-05-06T20:17:06.696Z,65.29
2023-05-06T20:19:33.058Z,65.52
2023-05-06T20:22:00.239Z,64.79
2023-05-06T20:24:29.362Z,65.10
2023-05-06T20:26:59.059Z,65.61
2023-05-06T20:29:26.099Z,67.61
2023-05-06T20:31:52.505Z,67.41
2023-05-06T20:34:19.081Z,66.28
2023-05-06T20:36:46.595Z,66.82
2023-05-06T20:39:12.988Z,66.52
2023-05-06T20:41:39.348Z,67.36
2023-05-06T20:44:05.814Z,67.20
2023-05-06T20:46:32.925Z,66.12
2023-05-06T20:48:59.919Z,67.98
2023-05-06T20:51:27.624Z,69.44
2023-05-06T20:53:58.930Z,69.80
2023-05-06T20:56:27.199Z,67.62
2023-05-06T20:58:54.822Z,69.19
2023-05-06T21:01:23.228Z,70.55
2023-05-06T21:03:50.579Z,68.36
2023-05-06T21:06:18.193Z,63.90
2023-05-06T21:08:46.188Z,59.89
2023-05-06T21:11:13.121Z,62.51
2023-05-06T21:13:40.244Z,56.14
2023-05-06T21:16:06.593Z,54.58
2023-05-06T21:18:33.107Z,53.47
2023-05-06T21:20:59.847Z,53.37
2023-05-06T21:23:26.435Z,52.52
2023-05-06T21:25:52.820Z,50.69
2023-05-06T21:28:19.187Z,51.93
2023-05-06T21:30:45.600Z,50.93
2023-05-06T21:33:12.145Z,51.44
2023-05-06T21:35:38.592Z,50.76
2023-05-06T21:38:04.994Z,51.06
2023-05-06T21:40:31.501Z,51.34
2023-05-06T21:42:57.854Z,51.59
2023-05-06T21:45:24.239Z,51.63
2023-05-06T21:47:50.852Z,52.12
2023-05-06T21:50:17.251Z,51.89
2023-05-06T21:52:43.802Z,52.75
2023-05-06T21:55:11.217Z,52.74
2023-05-06T21:57:38.660Z,53.51
2023-05-06T22:00:12.324Z,53.83
2023-05-06T22:02:40.194Z,56.35
2023-05-06T22:05:08.425Z,54.90
2023-05-06T22:07:35.804Z,55.86
2023-05-06T22:10:02.415Z,55.51
2023-05-06T22:12:28.932Z,56.64
2023-05-06T22:14:55.879Z,57.58
2023-05-06T22:17:22.285Z,57.87
2023-05-06T22:19:48.928Z,57.53
2023-05-06T22:22:16.004Z,58.53
2023-05-06T22:24:42.577Z,58.75
2023-05-06T22:27:08.949Z,58.75
2023-05-06T22:29:35.358Z,59.81
2023-05-06T22:32:01.774Z,60.02
2023-05-06T22:34:28.158Z,63.14
2023-05-06T22:36:54.549Z,61.98
2023-05-06T22:39:21.430Z,62.37
2023-05-06T22:41:50.256Z,65.25
2023-05-06T22:44:17.244Z,68.06
2023-05-06T22:46:43.659Z,72.62
2023-05-06T22:49:09.982Z,80.58
2023-05-06T22:51:36.509Z,82.22
2023-05-06T22:54:02.901Z,83.61
2023-05-06T22:56:29.250Z,88.16
2023-05-06T22:58:55.634Z,89.72
2023-05-06T23:01:22.952Z,92.89
2023-05-06T23:03:49.449Z,95.92
2023-05-06T23:06:16.390Z,97.18
2023-05-06T23:08:42.735Z,98.98
2023-05-06T23:11:09.123Z,100.00
2023-05-06T23:13:36.487Z,100.00
2023-05-06T23:16:03.410Z,100.00
2023-05-06T23:18:29.857Z,100.00
2023-05-06T23:20:56.367Z,100.00
2023-05-06T23:23:22.720Z,100.00
2023-05-06T23:25:49.046Z,100.00
2023-05-06T23:28:15.509Z,100.00
2023-05-06T23:30:41.943Z,100.00
2023-05-06T23:33:08.830Z,100.00
2023-05-06T23:35:35.446Z,100.00
2023-05-06T23:38:01.845Z,100.00
2023-05-06T23:40:28.231Z,100.00
2023-05-06T23:42:54.694Z,100.00
2023-05-06T23:45:21.096Z,100.00
2023-05-06T23:47:47.440Z,100.00
2023-05-06T23:50:14.248Z,100.00
2023-05-06T23:52:40.953Z,100.00
2023-05-06T23:55:07.801Z,100.00
2023-05-06T23:57:34.283Z,100.00
